Time,TemperatureF,DewpointF,PressureIn,WindDirection,WindDirectionDegrees,WindSpeedMPH,WindSpeedGustMPH,Humidity,HourlyPrecipIn,Conditions,Clouds,dailyrainin,SolarRadiationWatts/m^2,SoftwareType,DateUTC
2013-08-17 00:13:00,83.2,78.0,30.03,ESE,117,1.0,2.0,84,0.00,,,0.00,0,weatherlink.com 1.10,2013-08-17 04:13:00,
2013-08-17 00:28:00,83.2,78.0,30.03,ESE,102,1.0,2.0,84,0.00,,,0.00,0,weatherlink.com 1.10,2013-08-17 04:28:00,
2013-08-17 00:43:00,83.1,78.0,30.03,ESE,102,1.0,2.0,85,0.00,,,0.00,0,weatherlink.com 1.10,2013-08-17 04:43:00,
2013-08-17 00:58:00,83.1,78.0,30.02,East,92,0.0,3.0,85,0.00,,,0.00,0,weatherlink.com 1.10,2013-08-17 04:58:00,
2013-08-17 01:13:00,83.0,78.0,30.02,ESE,115,1.0,4.0,85,0.00,,,0.00,0,weatherlink.com 1.10,2013-08-17 05:13:00,
2013-08-17 01:28:00,83.0,78.0,30.02,East,101,1.0,3.0,85,0.00,,,0.00,0,weatherlink.com 1.10,2013-08-17 05:28:00,
2013-08-17 01:43:00,83.0,78.0,30.02,East,101,1.0,2.0,85,0.00,,,0.00,0,weatherlink.com 1.10,2013-08-17 05:43:00,
2013-08-17 01:58:00,83.0,78.0,30.01,East,98,1.0,4.0,85,0.00,,,0.00,0,weatherlink.com 1.10,2013-08-17 05:58:00,
2013-08-17 02:13:00,83.0,78.0,30.01,ESE,115,1.0,4.0,85,0.00,,,0.00,0,weatherlink.com 1.10,2013-08-17 06:13:00,
2013-08-17 02:28:00,82.9,78.0,30.01,SE,127,1.0,4.0,85,0.00,,,0.00,0,weatherlink.com 1.10,2013-08-17 06:28:00,
2013-08-17 02:43:00,82.8,78.0,30.01,East,80,1.0,2.0,85,0.00,,,0.00,0,weatherlink.com 1.10,2013-08-17 06:43:00,
2013-08-17 02:58:00,82.7,78.0,30.01,SE,128,1.0,4.0,85,0.00,,,0.00,0,weatherlink.com 1.10,2013-08-17 06:58:00,
2013-08-17 03:13:00,82.7,78.0,30.00,East,84,1.0,3.0,85,0.00,,,0.00,0,weatherlink.com 1.10,2013-08-17 07:13:00,
2013-08-17 03:28:00,82.7,78.0,30.00,ESE,102,1.0,5.0,85,0.00,,,0.00,0,weatherlink.com 1.10,2013-08-17 07:28:00,
2013-08-17 03:43:00,82.7,78.0,30.00,East,101,1.0,4.0,85,0.00,,,0.00,0,weatherlink.com 1.10,2013-08-17 07:43:00,
2013-08-17 03:58:00,82.5,78.0,30.00,ESE,112,1.0,2.0,85,0.00,,,0.00,0,weatherlink.com 1.10,2013-08-17 07:58:00,
2013-08-17 04:13:00,82.5,78.0,30.00,ESE,115,1.0,3.0,85,0.00,,,0.00,0,weatherlink.com 1.10,2013-08-17 08:13:00,
2013-08-17 04:28:00,82.5,78.0,30.00,ESE,105,1.0,3.0,85,0.00,,,0.00,0,weatherlink.com 1.10,2013-08-17 08:28:00,
2013-08-17 04:43:00,82.7,78.0,30.00,East,93,2.0,5.0,85,0.00,,,0.00,0,weatherlink.com 1.10,2013-08-17 08:43:00,
2013-08-17 04:58:00,82.7,78.0,30.00,ESE,117,0.0,3.0,84,0.00,,,0.00,0,weatherlink.com 1.10,2013-08-17 08:58:00,
2013-08-17 05:13:00,82.5,77.0,30.00,ESE,107,2.0,3.0,84,0.00,,,0.00,0,weatherlink.com 1.10,2013-08-17 09:13:00,
2013-08-17 05:28:00,82.4,77.0,30.00,SSE,149,0.0,3.0,84,0.00,,,0.00,0,weatherlink.com 1.10,2013-08-17 09:28:00,
2013-08-17 05:43:00,82.2,77.0,30.00,ESE,106,0.0,4.0,84,0.00,,,0.00,0,weatherlink.com 1.10,2013-08-17 09:43:00,
2013-08-17 05:58:00,82.2,77.0,30.00,SE,132,0.0,2.0,84,0.00,,,0.00,0,weatherlink.com 1.10,2013-08-17 09:58:00,
2013-08-17 06:13:00,81.8,77.0,30.00,SE,132,0.0,1.0,85,0.00,,,0.00,0,weatherlink.com 1.10,2013-08-17 10:13:00,
2013-08-17 06:28:00,81.7,77.0,30.00,SE,131,1.0,3.0,85,0.00,,,0.00,0,weatherlink.com 1.10,2013-08-17 10:28:00,
2013-08-17 06:43:00,81.8,77.0,30.00,SE,132,1.0,2.0,85,0.00,,,0.00,0,weatherlink.com 1.10,2013-08-17 10:43:00,
2013-08-17 06:58:00,81.8,77.0,30.00,East,98,1.0,4.0,85,0.00,,,0.00,11,weatherlink.com 1.10,2013-08-17 10:58:00,
2013-08-17 07:13:00,82.0,77.0,30.01,East,92,2.0,3.0,85,0.00,,,0.00,30,weatherlink.com 1.10,2013-08-17 11:13:00,
2013-08-17 07:28:00,82.1,77.0,30.02,ESE,119,1.0,3.0,85,0.00,,,0.00,58,weatherlink.com 1.10,2013-08-17 11:28:00,
2013-08-17 07:43:00,82.9,77.0,30.02,SE,129,1.0,3.0,83,0.00,,,0.00,104,weatherlink.com 1.10,2013-08-17 11:43:00,
2013-08-17 07:58:00,83.7,78.0,30.02,ESE,115,1.0,3.0,83,0.00,,,0.00,160,weatherlink.com 1.10,2013-08-17 11:58:00,
2013-08-17 08:14:00,84.3,78.0,30.02,ESE,118,2.0,5.0,82,0.00,,,0.00,207,weatherlink.com 1.10,2013-08-17 12:14:00,
2013-08-17 08:29:00,84.2,77.0,30.03,ESE,119,3.0,6.0,80,0.00,,,0.00,58,weatherlink.com 1.10,2013-08-17 12:29:00,
2013-08-17 08:44:00,83.9,78.0,30.03,ESE,121,0.0,7.0,82,0.00,,,0.00,83,weatherlink.com 1.10,2013-08-17 12:44:00,
2013-08-17 08:59:00,83.8,78.0,30.04,ESE,113,4.0,6.0,82,0.00,,,0.00,60,weatherlink.com 1.10,2013-08-17 12:59:00,
2013-08-17 09:14:00,85.3,79.0,30.04,ESE,103,4.0,4.0,81,0.00,,,0.00,418,weatherlink.com 1.10,2013-08-17 13:14:00,
2013-08-17 09:29:00,86.1,79.0,30.04,ESE,113,7.0,9.0,80,0.00,,,0.00,554,weatherlink.com 1.10,2013-08-17 13:29:00,
2013-08-17 09:44:00,85.0,79.0,30.05,SE,134,5.0,9.0,81,0.00,,,0.00,188,weatherlink.com 1.10,2013-08-17 13:44:00,
2013-08-17 09:59:00,85.7,78.0,30.05,ESE,102,6.0,8.0,78,0.00,,,0.00,589,weatherlink.com 1.10,2013-08-17 13:59:00,
2013-08-17 10:14:00,87.0,79.0,30.05,ENE,60,3.0,7.0,77,0.00,,,0.00,698,weatherlink.com 1.10,2013-08-17 14:14:00,
2013-08-17 10:29:00,86.5,78.0,30.05,ESE,121,4.0,9.0,75,0.00,,,0.00,673,weatherlink.com 1.10,2013-08-17 14:29:00,
2013-08-17 10:44:00,86.6,78.0,30.05,East,94,4.0,9.0,75,0.00,,,0.00,809,weatherlink.com 1.10,2013-08-17 14:44:00,
2013-08-17 10:59:00,87.4,79.0,30.06,SE,135,7.0,8.0,77,0.00,,,0.00,851,weatherlink.com 1.10,2013-08-17 14:59:00,
2013-08-17 11:14:00,87.7,78.0,30.06,East,84,9.0,11.0,73,0.00,,,0.00,805,weatherlink.com 1.10,2013-08-17 15:14:00,
2013-08-17 11:29:00,87.6,78.0,30.06,East,84,5.0,9.0,74,0.00,,,0.00,877,weatherlink.com 1.10,2013-08-17 15:29:00,
2013-08-17 11:44:00,87.0,79.0,30.06,ESE,109,4.0,11.0,76,0.00,,,0.00,962,weatherlink.com 1.10,2013-08-17 15:44:00,
2013-08-17 11:59:00,86.9,78.0,30.05,East,96,4.0,10.0,75,0.00,,,0.00,1028,weatherlink.com 1.10,2013-08-17 15:59:00,
2013-08-17 12:14:00,87.5,78.0,30.05,East,89,1.0,9.0,74,0.00,,,0.00,1042,weatherlink.com 1.10,2013-08-17 16:14:00,
2013-08-17 12:29:00,87.9,79.0,30.05,SSE,148,5.0,10.0,75,0.00,,,0.00,984,weatherlink.com 1.10,2013-08-17 16:29:00,
2013-08-17 12:44:00,86.8,78.0,30.04,ESE,123,5.0,11.0,76,0.00,,,0.00,322,weatherlink.com 1.10,2013-08-17 16:44:00,
2013-08-17 12:59:00,87.6,79.0,30.04,ESE,121,10.0,11.0,76,0.00,,,0.00,1058,weatherlink.com 1.10,2013-08-17 16:59:00,
2013-08-17 13:14:00,87.4,79.0,30.03,SSE,148,6.0,11.0,76,0.00,,,0.00,1044,weatherlink.com 1.10,2013-08-17 17:14:00,
2013-08-17 13:29:00,88.3,80.0,30.03,SE,143,5.0,10.0,75,0.00,,,0.00,1021,weatherlink.com 1.10,2013-08-17 17:29:00,
2013-08-17 13:44:00,87.1,79.0,30.03,ESE,114,7.0,12.0,76,0.00,,,0.00,265,weatherlink.com 1.10,2013-08-17 17:44:00,
2013-08-17 13:59:00,87.4,79.0,30.03,ENE,77,5.0,12.0,75,0.00,,,0.00,385,weatherlink.com 1.10,2013-08-17 17:59:00,
2013-08-17 14:14:00,86.8,78.0,30.02,ESE,111,0.0,11.0,76,0.00,,,0.00,350,weatherlink.com 1.10,2013-08-17 18:14:00,
2013-08-17 14:29:00,87.4,78.0,30.02,SE,144,1.0,11.0,74,0.00,,,0.00,1020,weatherlink.com 1.10,2013-08-17 18:29:00,
2013-08-17 14:44:00,86.9,77.0,30.02,ESE,121,3.0,10.0,73,0.00,,,0.00,960,weatherlink.com 1.10,2013-08-17 18:44:00,
2013-08-17 14:59:00,87.5,78.0,30.01,ESE,115,7.0,9.0,74,0.00,,,0.00,417,weatherlink.com 1.10,2013-08-17 18:59:00,
2013-08-17 15:14:00,87.0,79.0,30.01,East,97,8.0,11.0,76,0.00,,,0.00,889,weatherlink.com 1.10,2013-08-17 19:14:00,
2013-08-17 15:29:00,86.8,78.0,30.00,ESE,102,7.0,11.0,76,0.00,,,0.00,204,weatherlink.com 1.10,2013-08-17 19:29:00,
2013-08-17 15:44:00,86.5,78.0,30.00,East,91,2.0,10.0,75,0.00,,,0.00,276,weatherlink.com 1.10,2013-08-17 19:44:00,
2013-08-17 15:59:00,86.9,79.0,30.00,SE,136,3.0,8.0,76,0.00,,,0.00,789,weatherlink.com 1.10,2013-08-17 19:59:00,
2013-08-17 16:14:00,87.3,78.0,30.00,ESE,117,8.0,12.0,73,0.00,,,0.00,708,weatherlink.com 1.10,2013-08-17 20:14:00,
2013-08-17 16:29:00,86.4,78.0,30.00,East,82,7.0,11.0,77,0.00,,,0.00,202,weatherlink.com 1.10,2013-08-17 20:29:00,
2013-08-17 16:44:00,86.9,79.0,30.00,ESE,119,2.0,10.0,76,0.00,,,0.00,715,weatherlink.com 1.10,2013-08-17 20:44:00,
2013-08-17 16:59:00,86.6,79.0,30.00,NE,36,3.0,8.0,77,0.00,,,0.00,118,weatherlink.com 1.10,2013-08-17 20:59:00,
2013-08-17 17:14:00,86.4,78.0,29.99,East,83,3.0,11.0,75,0.00,,,0.00,522,weatherlink.com 1.10,2013-08-17 21:14:00,
2013-08-17 17:29:00,86.2,78.0,30.00,ESE,121,2.0,11.0,77,0.00,,,0.00,163,weatherlink.com 1.10,2013-08-17 21:29:00,
2013-08-17 17:44:00,85.9,78.0,30.00,ESE,119,1.0,9.0,76,0.00,,,0.00,91,weatherlink.com 1.10,2013-08-17 21:44:00,
2013-08-17 17:59:00,86.0,78.0,30.00,East,87,3.0,10.0,78,0.00,,,0.00,359,weatherlink.com 1.10,2013-08-17 21:59:00,
2013-08-17 18:14:00,85.9,78.0,30.00,ENE,74,4.0,8.0,78,0.00,,,0.00,127,weatherlink.com 1.10,2013-08-17 22:14:00,
2013-08-17 18:29:00,85.6,78.0,30.00,ESE,105,6.0,10.0,78,0.00,,,0.00,77,weatherlink.com 1.10,2013-08-17 22:29:00,
2013-08-17 18:44:00,85.2,78.0,30.00,East,98,3.0,9.0,78,0.00,,,0.00,40,weatherlink.com 1.10,2013-08-17 22:44:00,
2013-08-17 19:00:00,85.2,78.0,30.01,East,93,7.0,9.0,79,0.00,,,0.00,37,weatherlink.com 1.10,2013-08-17 23:00:00,
2013-08-17 19:15:00,84.7,78.0,30.01,ESE,118,3.0,6.0,80,0.00,,,0.00,14,weatherlink.com 1.10,2013-08-17 23:15:00,
2013-08-17 19:30:00,84.4,78.0,30.02,ESE,111,6.0,8.0,81,0.00,,,0.00,9,weatherlink.com 1.10,2013-08-17 23:30:00,
2013-08-17 19:45:00,84.2,77.0,30.02,ENE,74,4.0,8.0,79,0.00,,,0.00,0,weatherlink.com 1.10,2013-08-17 23:45:00,
2013-08-17 20:00:00,84.1,77.0,30.03,SE,127,4.0,7.0,79,0.00,,,0.00,0,weatherlink.com 1.10,2013-08-18 00:00:00,
2013-08-17 20:15:00,84.2,77.0,30.03,East,86,3.0,4.0,80,0.00,,,0.00,0,weatherlink.com 1.10,2013-08-18 00:15:00,
2013-08-17 20:30:00,83.9,77.0,30.04,ESE,106,2.0,6.0,80,0.00,,,0.00,0,weatherlink.com 1.10,2013-08-18 00:30:00,
2013-08-17 20:45:00,83.9,77.0,30.04,ENE,77,1.0,7.0,80,0.00,,,0.00,0,weatherlink.com 1.10,2013-08-18 00:45:00,
2013-08-17 21:00:00,83.9,77.0,30.05,ESE,108,2.0,5.0,80,0.00,,,0.00,0,weatherlink.com 1.10,2013-08-18 01:00:00,
2013-08-17 21:15:00,83.9,78.0,30.05,NE,51,1.0,3.0,81,0.00,,,0.00,0,weatherlink.com 1.10,2013-08-18 01:15:00,
2013-08-17 21:30:00,83.8,77.0,30.05,East,101,3.0,7.0,81,0.00,,,0.00,0,weatherlink.com 1.10,2013-08-18 01:30:00,
2013-08-17 21:45:00,83.9,78.0,30.06,ESE,117,2.0,8.0,82,0.03,,,0.03,0,weatherlink.com 1.10,2013-08-18 01:45:00,
2013-08-17 22:00:00,82.0,78.0,30.05,ESE,110,3.0,5.0,86,0.04,,,0.04,0,weatherlink.com 1.10,2013-08-18 02:00:00,
2013-08-17 22:15:00,81.5,77.0,30.06,SE,131,2.0,4.0,86,0.04,,,0.04,0,weatherlink.com 1.10,2013-08-18 02:15:00,
2013-08-17 22:30:00,81.6,77.0,30.06,East,99,3.0,4.0,86,0.04,,,0.04,0,weatherlink.com 1.10,2013-08-18 02:30:00,
2013-08-17 22:45:00,81.9,77.0,30.07,ESE,118,2.0,6.0,85,0.01,,,0.04,0,weatherlink.com 1.10,2013-08-18 02:45:00,
2013-08-17 23:00:00,82.1,77.0,30.07,ESE,121,2.0,7.0,85,0.00,,,0.04,0,weatherlink.com 1.10,2013-08-18 03:00:00,
2013-08-17 23:15:00,82.0,77.0,30.07,SE,144,3.0,6.0,85,0.00,,,0.04,0,weatherlink.com 1.10,2013-08-18 03:15:00,
2013-08-17 23:30:00,82.2,77.0,30.07,ESE,113,2.0,7.0,84,0.00,,,0.04,0,weatherlink.com 1.10,2013-08-18 03:30:00,
2013-08-17 23:45:00,82.0,76.0,30.06,East,99,3.0,6.0,83,0.00,,,0.04,0,weatherlink.com 1.10,2013-08-18 03:45:00,